Time;durP1;ratioP1;P1;durP2;ratioP2;P2;SDS_P1;SDS_P2;PMS_P1;PMS_P2;Temp;Humidity;BMP_temperature;BMP_pressure;BME280_temperature;BME280_humidity;BME280_pressure;Samples;Min_cycle;Max_cycle;Signal;HPM_P1;HPM_P2
2022/11/23 00:02:32;;;;;;;44.03;24.43;;;;;;;1.72;93.53;97899.22;2239336;79;20916;-84
2022/11/23 00:05:32;;;;;;;40.17;23.07;;;;;;;1.70;93.41;97907.72;2239218;79;20944;-84
2022/11/23 00:08:33;;;;;;;37.67;21.83;;;;;;;1.67;93.45;97899.49;2239180;79;20889;-85
2022/11/23 00:11:33;;;;;;;39.07;23.30;;;;;;;1.69;93.48;97901.70;2239120;79;21315;-85
2022/11/23 00:14:33;;;;;;;38.70;22.70;;;;;;;1.68;93.31;97904.23;2238967;79;20920;-85
2022/11/23 00:17:34;;;;;;;37.53;22.70;;;;;;;1.68;93.25;97893.52;2239354;79;20916;-86
2022/11/23 00:20:34;;;;;;;42.80;23.50;;;;;;;1.67;93.16;97894.35;2238958;80;20935;-85
2022/11/23 00:23:35;;;;;;;34.07;22.53;;;;;;;1.64;92.87;97900.69;2239130;79;21268;-84
2022/11/23 00:26:35;;;;;;;37.40;22.30;;;;;;;1.64;92.87;97900.69;2239509;79;20865;-83
2022/11/23 00:29:35;;;;;;;58.23;34.93;;;;;;;1.66;93.03;97906.75;2239254;79;20908;-84
2022/11/23 00:32:36;;;;;;;43.93;25.77;;;;;;;1.66;92.87;97905.47;2239238;79;20975;-84
2022/11/23 00:35:36;;;;;;;42.47;24.00;;;;;;;1.66;92.82;97896.46;2239113;79;21292;-84
2022/11/23 00:38:37;;;;;;;35.30;22.47;;;;;;;1.59;92.54;97908.25;2238876;79;21386;-83
2022/11/23 00:41:37;;;;;;;36.20;21.97;;;;;;;1.59;92.54;97908.25;2239019;79;20888;-84
2022/11/23 00:44:38;;;;;;;37.43;22.40;;;;;;;1.62;92.48;97902.75;2238914;79;20912;-84
2022/11/23 00:47:38;;;;;;;56.63;32.17;;;;;;;1.61;92.35;97905.73;2239397;79;20913;-84
2022/11/23 00:50:38;;;;;;;74.67;38.90;;;;;;;1.59;92.18;97899.66;2239309;79;20951;-84
2022/11/23 00:53:39;;;;;;;82.33;43.60;;;;;;;1.61;92.29;97898.02;2238935;79;20924;-85
2022/11/23 00:56:39;;;;;;;73.00;40.47;;;;;;;1.63;92.06;97904.49;2239158;79;20912;-84
2022/11/23 00:59:40;;;;;;;38.13;24.07;;;;;;;1.62;91.58;97905.32;2239816;79;20929;-84
2022/11/23 01:02:40;;;;;;;37.43;23.40;;;;;;;1.54;91.10;97896.95;2242631;79;20909;-85
2022/11/23 01:05:41;;;;;;;37.70;21.47;;;;;;;1.48;90.87;97898.45;2242221;79;21316;-84
2022/11/23 01:08:41;;;;;;;38.30;22.10;;;;;;;1.45;90.64;97895.37;2242747;79;20916;-83
2022/11/23 01:11:41;;;;;;;40.33;23.60;;;;;;;1.37;90.33;97895.53;2242789;79;20944;-84
2022/11/23 01:14:42;;;;;;;40.13;23.77;;;;;;;1.28;90.34;97892.66;2242422;79;20916;-84
2022/11/23 01:17:42;;;;;;;39.57;23.10;;;;;;;1.21;90.48;97896.73;2242593;79;20928;-84
2022/11/23 01:20:42;;;;;;;39.57;23.97;;;;;;;1.17;90.55;97892.72;2242821;79;20909;-85
2022/11/23 01:23:43;;;;;;;43.63;23.77;;;;;;;1.11;90.38;97892.11;2242843;79;20948;-85
2022/11/23 01:26:43;;;;;;;42.57;24.43;;;;;;;1.07;90.92;97886.41;2242671;79;20909;-85
2022/11/23 01:29:44;;;;;;;42.70;24.93;;;;;;;1.05;90.88;97886.77;2242288;79;20901;-85
2022/11/23 01:32:44;;;;;;;44.27;24.97;;;;;;;1.02;90.94;97883.22;2242405;79;20932;-85
2022/11/23 01:35:45;;;;;;;41.53;24.83;;;;;;;1.03;91.11;97892.67;2242686;79;20877;-84
2022/11/23 01:38:45;;;;;;;65.27;24.80;;;;;;;1.02;91.11;97882.80;2242376;79;21359;-83
2022/11/23 01:41:45;;;;;;;41.07;23.77;;;;;;;0.99;90.89;97877.56;2241947;79;20913;-83
2022/11/23 01:44:46;;;;;;;44.83;25.60;;;;;;;1.26;92.25;97876.31;2242115;79;20905;-83
2022/11/23 01:47:46;;;;;;;45.10;25.47;;;;;;;1.20;91.22;97874.42;2242251;79;21382;-84
2022/11/23 01:50:47;;;;;;;41.73;25.10;;;;;;;1.16;91.12;97876.84;2242090;79;20933;-84
2022/11/23 01:53:47;;;;;;;46.60;26.10;;;;;;;1.11;91.04;97870.27;2242421;79;20962;-81
2022/11/23 01:56:48;;;;;;;51.10;26.37;;;;;;;1.11;91.20;97866.41;2242277;79;20937;-84
2022/11/23 01:59:48;;;;;;;45.93;25.10;;;;;;;1.08;91.01;97869.28;2243555;79;21312;-83
2022/11/23 02:02:48;;;;;;;41.93;24.47;;;;;;;1.01;91.00;97867.33;2248812;79;20885;-84
2022/11/23 02:05:49;;;;;;;48.57;26.30;;;;;;;0.94;90.97;97869.70;2249128;79;20896;-83
2022/11/23 02:08:49;;;;;;;39.03;24.30;;;;;;;0.89;91.14;97871.66;2248807;79;20869;-83
2022/11/23 02:11:50;;;;;;;49.63;24.43;;;;;;;0.85;91.36;97871.05;2248883;79;20932;-84
2022/11/23 02:14:50;;;;;;;43.03;25.13;;;;;;;0.82;91.37;97867.97;2248557;79;20964;-83
2022/11/23 02:17:50;;;;;;;46.83;24.73;;;;;;;0.83;91.55;97869.71;2248693;79;20912;-83
2022/11/23 02:20:51;;;;;;;39.80;23.00;;;;;;;0.84;91.54;97871.88;2248655;79;20936;-85
2022/11/23 02:23:51;;;;;;;40.50;23.00;;;;;;;0.83;91.67;97871.00;2248803;79;20952;-84
2022/11/23 02:26:52;;;;;;;41.33;24.30;;;;;;;0.87;91.96;97881.00;2248926;79;20979;-84
2022/11/23 02:29:52;;;;;;;38.33;24.17;;;;;;;0.91;91.97;97877.72;2248472;79;20947;-84
2022/11/23 02:32:52;;;;;;;51.57;24.73;;;;;;;0.95;92.23;97884.70;2248558;79;20968;-85
2022/11/23 02:35:53;;;;;;;39.37;22.33;;;;;;;1.01;92.47;97880.19;2248910;79;20920;-85
2022/11/23 02:38:53;;;;;;;37.97;22.77;;;;;;;1.03;92.50;97886.25;2248685;79;20911;-87
2022/11/23 02:41:54;;;;;;;34.77;21.77;;;;;;;1.07;92.56;97890.67;2248493;79;20905;-86
2022/11/23 02:44:54;;;;;;;38.73;22.43;;;;;;;1.09;92.70;97886.45;2248468;79;20893;-87
2022/11/23 02:47:55;;;;;;;36.30;21.20;;;;;;;1.10;92.67;97901.92;2248952;79;20964;-85
2022/11/23 02:50:55;;;;;;;39.57;22.87;;;;;;;1.10;92.84;97907.06;2249113;79;20912;-84
2022/11/23 02:53:55;;;;;;;33.00;19.70;;;;;;;1.09;93.15;97907.89;2248744;79;20960;-85
2022/11/23 02:56:56;;;;;;;35.70;19.97;;;;;;;1.04;92.99;97905.58;2248841;79;20980;-85
2022/11/23 02:59:56;;;;;;;34.33;20.23;;;;;;;1.04;92.99;97905.58;2247399;79;20979;-85
2022/11/23 03:02:57;;;;;;;34.07;21.57;;;;;;;1.05;93.18;97912.46;2242029;79;20936;-85
2022/11/23 03:05:57;;;;;;;37.77;21.97;;;;;;;1.06;93.18;97905.22;2242031;79;20967;-85
2022/11/23 03:08:57;;;;;;;79.30;23.37;;;;;;;1.06;93.30;97902.64;2242335;79;20904;-83
2022/11/23 03:11:58;;;;;;;35.83;21.40;;;;;;;1.06;93.24;97905.22;2242238;79;20972;-87
2022/11/23 03:14:58;;;;;;;43.37;25.27;;;;;;;1.09;93.33;97914.31;2242299;79;20957;-85
2022/11/23 03:17:58;;;;;;;37.87;22.20;;;;;;;1.13;93.33;97914.88;2242417;79;20932;-86
2022/11/23 03:20:59;;;;;;;37.50;22.10;;;;;;;1.21;93.25;97908.30;2242674;79;20909;-85
2022/11/23 03:23:59;;;;;;;40.70;21.63;;;;;;;1.23;92.95;97904.08;2242273;79;20916;-84
2022/11/23 03:27:02;;;;;;;35.93;20.33;;;;;;;1.26;92.87;97906.75;2239372;79;20920;-85
2022/11/23 03:30:02;;;;;;;36.13;21.60;;;;;;;1.24;92.76;97903.26;2242536;79;20909;-85
2022/11/23 03:33:02;;;;;;;41.27;21.93;;;;;;;1.23;92.75;97900.22;2242299;79;21299;-84
2022/11/23 03:36:03;;;;;;;36.17;21.90;;;;;;;1.26;92.81;97896.47;2242243;79;20885;-84
2022/11/23 03:39:03;;;;;;;50.83;22.70;;;;;;;1.24;92.57;97891.69;2242416;79;20905;-83
2022/11/23 03:42:04;;;;;;;37.33;22.20;;;;;;;1.21;92.66;97894.16;2242428;79;20909;-85
2022/11/23 03:45:04;;;;;;;38.93;22.10;;;;;;;1.22;92.76;97902.33;2241957;79;20941;-84
2022/11/23 03:48:05;;;;;;;36.97;22.33;;;;;;;1.20;92.81;97893.70;2242644;79;20901;-85
2022/11/23 03:51:05;;;;;;;36.47;20.67;;;;;;;1.26;92.85;97896.88;2242533;79;20940;-84
2022/11/23 03:54:05;;;;;;;36.20;21.60;;;;;;;1.26;92.68;97891.73;2242417;79;20933;-85
2022/11/23 03:57:06;;;;;;;33.90;20.23;;;;;;;1.28;92.73;97886.23;2243359;79;20908;-82
2022/11/23 04:00:07;;;;;;;35.10;20.43;;;;;;;1.32;92.52;97889.78;2242772;79;20972;-81
2022/11/23 04:03:07;;;;;;;38.97;20.97;;;;;;;1.28;92.31;97888.39;2246001;79;20901;-86
2022/11/23 04:06:07;;;;;;;32.90;19.97;;;;;;;1.26;92.41;97892.61;2246110;79;20912;-85
2022/11/23 04:09:08;;;;;;;43.47;25.57;;;;;;;1.28;92.37;97890.97;2245488;79;20916;-82
2022/11/23 04:12:08;;;;;;;32.30;18.90;;;;;;;1.26;92.32;97889.17;2246011;79;20962;-83
2022/11/23 04:15:08;;;;;;;35.53;20.87;;;;;;;1.26;92.16;97888.76;2245352;79;21011;-84
2022/11/23 04:18:09;;;;;;;39.80;21.80;;;;;;;1.22;92.10;97897.19;2245588;79;20932;-84
2022/11/23 04:21:09;;;;;;;34.93;20.60;;;;;;;1.22;92.39;97894.62;2245751;79;20903;-84
2022/11/23 04:24:10;;;;;;;38.10;20.20;;;;;;;1.22;92.31;97893.75;2245507;79;21261;-85
2022/11/23 04:27:10;;;;;;;37.23;20.23;;;;;;;1.25;92.61;97889.58;2245730;79;20896;-86
2022/11/23 04:30:10;;;;;;;32.53;19.90;;;;;;;1.28;92.37;97890.97;2245614;79;20947;-85
2022/11/23 04:33:11;;;;;;;33.00;20.10;;;;;;;1.21;91.93;97886.45;2245014;79;20946;-85
2022/11/23 04:36:11;;;;;;;35.47;21.10;;;;;;;1.18;92.20;97885.06;2245520;79;20877;-85
2022/11/23 04:39:12;;;;;;;38.00;22.37;;;;;;;1.20;92.47;97883.41;2245767;79;20920;-85
2022/11/23 04:42:12;;;;;;;34.87;20.50;;;;;;;1.21;92.31;97880.02;2245941;79;20909;-86
2022/11/23 04:45:12;;;;;;;33.20;19.63;;;;;;;1.22;92.50;97881.77;2245534;79;21035;-85
2022/11/23 04:48:13;;;;;;;36.90;21.73;;;;;;;1.23;92.36;97888.66;2244392;79;21075;-85
2022/11/23 04:51:13;;;;;;;38.80;22.40;;;;;;;1.25;92.23;97888.30;2243499;79;20951;-85
2022/11/23 04:54:14;;;;;;;40.80;23.80;;;;;;;1.24;92.09;97896.83;2243641;79;20999;-87
2022/11/23 04:57:14;;;;;;;42.27;23.57;;;;;;;1.27;92.34;97895.64;2244403;79;20940;-86
2022/11/23 05:00:14;;;;;;;43.57;24.63;;;;;;;1.26;91.88;97895.19;2244269;79;20921;-86
2022/11/23 05:03:15;;;;;;;51.63;25.70;;;;;;;1.24;92.15;97889.12;2247416;79;21280;-85
2022/11/23 05:06:15;;;;;;;50.63;25.43;;;;;;;1.23;91.79;97893.80;2247157;79;20955;-84
2022/11/23 05:09:16;;;;;;;43.00;24.13;;;;;;;1.17;91.85;97892.31;2247259;79;20920;-86
2022/11/23 05:12:16;;;;;;;47.17;25.00;;;;;;;1.16;92.00;97905.11;2247262;79;21168;-85
2022/11/23 05:15:16;;;;;;;52.17;25.67;;;;;;;1.12;91.89;97900.28;2247428;79;21435;-84
2022/11/23 05:18:17;;;;;;;48.57;26.70;;;;;;;1.14;92.11;97901.20;2246600;79;21024;-85
2022/11/23 05:21:17;;;;;;;53.77;26.30;;;;;;;1.18;92.06;97899.20;2247501;79;20893;-85
2022/11/23 05:24:18;;;;;;;57.03;27.40;;;;;;;1.21;91.85;97907.42;2247816;79;20920;-87
2022/11/23 05:27:18;;;;;;;103.27;53.73;;;;;;;1.21;91.88;97904.44;2247182;79;20931;-85
2022/11/23 05:30:19;;;;;;;61.37;31.67;;;;;;;1.23;91.79;97906.65;2248654;79;20936;-82
2022/11/23 05:33:19;;;;;;;55.03;28.67;;;;;;;1.20;91.41;97901.41;2248310;79;20904;-86
2022/11/23 05:36:19;;;;;;;49.53;26.60;;;;;;;1.17;91.50;97906.86;2249075;79;20939;-84
2022/11/23 05:39:20;;;;;;;50.47;26.67;;;;;;;1.15;91.53;97906.81;2249120;79;20952;-83
2022/11/23 05:42:20;;;;;;;67.33;31.50;;;;;;;1.14;91.45;97911.90;2248319;79;21277;-85
2022/11/23 05:45:21;;;;;;;69.00;26.30;;;;;;;1.16;91.60;97905.11;2247898;79;20984;-87
2022/11/23 05:48:21;;;;;;;61.47;27.80;;;;;;;1.18;92.26;97905.63;2247484;79;20909;-85
2022/11/23 05:51:22;;;;;;;66.67;27.17;;;;;;;1.39;91.75;97909.73;2247620;79;20897;-86
2022/11/23 05:54:22;;;;;;;78.93;29.87;;;;;;;1.38;91.09;97919.55;2248366;79;20944;-85
2022/11/23 05:57:22;;;;;;;58.37;28.13;;;;;;;1.34;90.82;97918.98;2248528;79;20928;-85
2022/11/23 06:00:23;;;;;;;57.93;27.27;;;;;;;1.51;91.49;97916.14;2246725;79;21297;-84
2022/11/23 06:03:23;;;;;;;123.10;65.90;;;;;;;1.53;90.54;97911.05;2236463;79;20952;-84
2022/11/23 06:06:24;;;;;;;74.73;39.77;;;;;;;1.50;90.21;97910.53;2236944;79;20963;-86
2022/11/23 06:09:24;;;;;;;156.37;55.73;;;;;;;1.45;90.09;97913.37;2236951;79;20960;-85
2022/11/23 06:12:24;;;;;;;68.83;32.63;;;;;;;1.41;90.22;97915.38;2236870;79;20943;-84
2022/11/23 06:15:25;;;;;;;61.20;30.27;;;;;;;1.42;90.13;97916.25;2236252;79;21331;-85
2022/11/23 06:18:25;;;;;;;54.77;28.53;;;;;;;1.41;90.05;97921.81;2236480;79;20928;-85
2022/11/23 06:21:26;;;;;;;57.13;27.03;;;;;;;1.43;90.25;97917.59;2235841;79;20912;-85
2022/11/23 06:24:26;;;;;;;58.80;27.63;;;;;;;1.48;90.10;97928.03;2235970;79;20916;-84
2022/11/23 06:27:26;;;;;;;50.77;27.10;;;;;;;1.47;90.04;97929.72;2235678;79;21323;-85
2022/11/23 06:30:27;;;;;;;43.87;24.57;;;;;;;1.47;89.81;97936.56;2236434;79;21364;-82
2022/11/23 06:33:27;;;;;;;42.97;23.70;;;;;;;1.46;89.74;97938.67;2236695;79;20933;-84
2022/11/23 06:36:28;;;;;;;43.93;24.57;;;;;;;1.48;89.92;97944.74;2236896;79;21328;-83
2022/11/23 06:39:29;;;;;;;57.23;22.33;;;;;;;1.47;89.88;97946.44;2236876;80;21067;-82
2022/11/23 06:42:29;;;;;;;38.30;20.50;;;;;;;1.38;89.23;97950.41;2236700;79;21408;-84
2022/11/23 06:45:30;;;;;;;29.33;17.13;;;;;;;1.28;89.46;97951.80;2236511;79;20968;-83
2022/11/23 06:48:30;;;;;;;36.43;18.23;;;;;;;1.21;89.75;97956.27;2236974;79;20904;-80
2022/11/23 06:51:31;;;;;;;30.17;17.77;;;;;;;1.21;90.16;97961.41;2237697;80;20917;-79
2022/11/23 06:54:31;;;;;;;83.30;19.90;;;;;;;1.23;90.21;97958.48;2237512;79;20909;-83
2022/11/23 06:57:31;;;;;;;30.67;16.73;;;;;;;1.32;90.43;97960.48;2237556;79;20955;-83
2022/11/23 07:00:32;;;;;;;23.80;15.90;;;;;;;1.36;90.17;97957.20;2236845;79;20925;-82
2022/11/23 07:03:32;;;;;;;21.07;14.90;;;;;;;1.40;89.95;97970.62;2239413;79;20916;-82
2022/11/23 07:06:33;;;;;;;24.33;15.93;;;;;;;1.43;89.88;97966.45;2239857;79;20900;-83
2022/11/23 07:09:33;;;;;;;26.90;16.17;;;;;;;1.43;89.44;97978.44;2240128;79;20885;-84
2022/11/23 07:12:34;;;;;;;22.60;14.60;;;;;;;1.44;89.56;97985.33;2240218;79;20936;-83
2022/11/23 07:15:34;;;;;;;24.30;16.63;;;;;;;1.47;89.43;97985.43;2240119;79;20971;-83
2022/11/23 07:18:34;;;;;;;26.60;16.57;;;;;;;1.44;89.32;97991.34;2239568;79;20909;-83
2022/11/23 07:21:35;;;;;;;27.73;16.57;;;;;;;1.34;89.16;97997.00;2240087;79;20948;-83
2022/11/23 07:24:35;;;;;;;30.60;18.90;;;;;;;1.30;89.41;97992.98;2240280;79;20920;-84
2022/11/23 07:27:35;;;;;;;32.63;19.40;;;;;;;1.17;89.48;97984.84;2239947;79;20936;-83
2022/11/23 07:30:36;;;;;;;32.43;18.67;;;;;;;1.19;90.04;97989.63;2239408;79;21288;-82
2022/11/23 07:33:36;;;;;;;29.57;18.77;;;;;;;1.17;89.88;97973.69;2239604;79;20988;-81
2022/11/23 07:36:37;;;;;;;34.27;17.53;;;;;;;1.17;90.23;97980.12;2239468;79;20960;-83
2022/11/23 07:42:40;;;;;;;25.43;17.23;;;;;;;1.32;89.83;97974.22;2119690;84;21328;-82
2022/11/23 07:45:40;;;;;;;30.43;18.80;;;;;;;1.35;89.91;97966.61;2119249;84;21040;-81
2022/11/23 07:48:40;;;;;;;27.60;17.93;;;;;;;1.39;89.85;97968.87;2120978;84;21025;-82
2022/11/23 07:51:41;;;;;;;28.43;18.33;;;;;;;1.37;89.74;97962.80;2120609;84;21101;-82
2022/11/23 07:54:41;;;;;;;65.93;19.63;;;;;;;1.41;89.67;97970.67;2121315;84;20933;-82
2022/11/23 07:57:42;;;;;;;28.13;18.13;;;;;;;1.46;89.64;97967.84;2120772;84;20957;-83
2022/11/23 08:00:42;;;;;;;28.13;18.07;;;;;;;1.56;89.53;97976.73;2121410;84;20948;-83
2022/11/23 08:03:43;;;;;;;25.87;15.50;;;;;;;1.60;89.33;97976.88;2123526;84;20996;-84
2022/11/23 08:06:43;;;;;;;36.73;16.87;;;;;;;1.64;89.47;97982.13;2122690;84;21179;-82
2022/11/23 08:09:43;;;;;;;24.13;15.40;;;;;;;1.73;89.09;97983.72;2123110;84;20956;-80
2022/11/23 08:12:44;;;;;;;23.07;16.17;;;;;;;1.77;88.88;97990.33;2123272;84;21710;-80
2022/11/23 08:15:44;;;;;;;23.07;15.63;;;;;;;1.84;88.72;97989.70;2123209;84;20980;-84
2022/11/23 08:18:44;;;;;;;122.13;20.23;;;;;;;1.86;88.13;97985.89;2123226;84;20948;-85
2022/11/23 08:21:45;;;;;;;96.47;20.07;;;;;;;1.89;88.32;97986.86;2123444;84;20965;-81
2022/11/23 08:24:46;;;;;;;23.27;15.33;;;;;;;2.00;88.58;97980.77;2123049;84;20940;-84
2022/11/23 08:27:46;;;;;;;23.27;15.03;;;;;;;2.13;87.90;97988.45;2123508;84;20984;-83
2022/11/23 08:30:46;;;;;;;24.97;14.07;;;;;;;2.22;87.75;97992.61;2124073;84;20960;-83
2022/11/23 08:33:46;;;;;;;21.33;13.87;;;;;;;2.30;87.64;97996.70;2123612;84;20972;-83
2022/11/23 08:36:47;;;;;;;21.83;15.00;;;;;;;2.39;87.25;97989.25;2122671;84;20953;-82
2022/11/23 08:39:47;;;;;;;23.63;15.00;;;;;;;2.48;86.36;97985.66;2212021;79;20956;-84
2022/11/23 08:42:48;;;;;;;71.70;18.30;;;;;;;2.46;86.35;97995.05;2243654;79;20947;-78
2022/11/23 08:45:48;;;;;;;24.30;15.50;;;;;;;2.42;86.43;97989.34;2242449;79;20955;-79
2022/11/23 08:48:48;;;;;;;169.77;23.17;;;;;;;2.48;86.40;97991.69;2242994;79;21280;-78
2022/11/23 08:51:49;;;;;;;34.93;18.90;;;;;;;2.51;86.32;97991.78;2242974;79;20904;-84
2022/11/23 08:54:49;;;;;;;37.53;19.17;;;;;;;2.55;86.38;97992.33;2242802;79;20888;-84
2022/11/23 08:57:50;;;;;;;35.40;18.80;;;;;;;2.56;85.31;97988.92;2242556;79;20935;-83
2022/11/23 09:00:50;;;;;;;38.80;20.87;;;;;;;2.53;85.85;97984.09;2242955;79;20909;-79
2022/11/23 09:03:51;;;;;;;1181.00;82.10;;;;;;;2.74;85.88;97978.72;2242544;79;20964;-81
2022/11/23 09:06:51;;;;;;;50.30;22.47;;;;;;;2.74;85.88;97978.72;2242984;79;21084;-82
2022/11/23 09:09:52;;;;;;;68.07;24.30;;;;;;;2.83;85.42;97972.13;2242767;79;21262;-79
2022/11/23 09:12:52;;;;;;;52.20;23.70;;;;;;;3.01;84.91;97964.44;2242103;79;20948;-81
2022/11/23 09:15:52;;;;;;;40.37;22.17;;;;;;;3.13;85.20;97964.36;2242848;79;20968;-81
2022/11/23 09:18:53;;;;;;;42.80;23.10;;;;;;;3.24;84.48;97959.48;2242341;79;20900;-81
2022/11/23 09:21:53;;;;;;;36.20;20.80;;;;;;;3.31;83.66;97962.67;2241835;79;20947;-80
2022/11/23 09:24:53;;;;;;;43.37;21.17;;;;;;;3.24;83.58;97966.34;2242501;79;20948;-80
2022/11/23 09:27:54;;;;;;;98.40;24.03;;;;;;;3.15;84.37;97963.11;2241512;79;21627;-80
2022/11/23 09:30:54;;;;;;;37.67;20.57;;;;;;;3.15;84.37;97963.11;2241543;79;20943;-81
2022/11/23 09:33:55;;;;;;;42.17;23.03;;;;;;;3.14;83.96;97967.39;2241877;79;20983;-80
2022/11/23 09:36:55;;;;;;;40.20;21.00;;;;;;;3.02;83.61;97967.06;2241369;79;20944;-80
2022/11/23 09:39:55;;;;;;;38.37;19.53;;;;;;;2.95;83.95;97961.28;2241707;79;20912;-80
2022/11/23 09:42:56;;;;;;;49.60;21.90;;;;;;;2.88;83.51;97959.36;2242972;79;20916;-82
2022/11/23 09:45:56;;;;;;;47.23;23.13;;;;;;;2.79;83.83;97948.39;2242866;79;20975;-80
2022/11/23 09:48:57;;;;;;;42.83;22.57;;;;;;;2.74;83.58;97943.52;2242703;79;20940;-78
2022/11/23 09:51:57;;;;;;;48.80;25.30;;;;;;;2.72;83.94;97936.58;2242507;79;20986;-79
2022/11/23 09:55:00;;;;;;;53.20;24.87;;;;;;;2.76;84.03;97932.84;2243044;79;20968;-81
2022/11/23 09:58:00;;;;;;;65.43;24.43;;;;;;;2.82;84.11;97931.72;2241009;79;20904;-84
2022/11/23 10:01:03;;;;;;;49.40;23.53;;;;;;;2.82;83.96;97924.41;2242876;79;20957;-82
2022/11/23 10:04:04;;;;;;;43.50;23.10;;;;;;;2.87;84.37;97918.54;2243657;79;21384;-83
2022/11/23 10:07:04;;;;;;;39.27;22.20;;;;;;;3.00;84.15;97912.00;2245266;79;20893;-83
2022/11/23 10:10:07;;;;;;;37.77;22.07;;;;;;;3.08;84.08;97911.79;2245152;79;20901;-81
2022/11/23 10:13:07;;;;;;;39.70;22.40;;;;;;;3.18;84.17;97909.03;2244184;79;20971;-83
2022/11/23 10:16:08;;;;;;;162.40;27.97;;;;;;;3.30;84.33;97900.73;2243669;79;20956;-81
2022/11/23 10:19:08;;;;;;;43.90;23.17;;;;;;;3.39;83.68;97902.25;2244664;79;20940;-84
2022/11/23 10:22:09;;;;;;;72.07;22.60;;;;;;;3.39;83.42;97900.96;2243827;79;20952;-84
2022/11/23 10:25:09;;;;;;;38.47;22.37;;;;;;;3.43;82.97;97898.91;2243726;79;20928;-84
2022/11/23 10:28:09;;;;;;;82.23;24.90;;;;;;;3.41;83.12;97900.58;2243791;79;20877;-82
2022/11/23 10:31:10;;;;;;;39.73;24.67;;;;;;;3.54;83.68;97903.95;2243702;79;20959;-82
2022/11/23 10:34:10;;;;;;;38.43;22.90;;;;;;;3.61;82.34;97897.23;2243188;79;21615;-82
2022/11/23 10:37:13;;;;;;;39.60;21.93;;;;;;;3.69;83.31;97900.86;2243160;79;20940;-83
2022/11/23 10:40:14;;;;;;;40.33;20.30;;;;;;;3.79;82.70;97911.44;2243774;79;21300;-82
2022/11/23 10:43:17;;;;;;;50.23;22.73;;;;;;;3.79;82.40;97907.57;2243124;79;20999;-82
2022/11/23 10:46:18;;;;;;;70.33;24.63;;;;;;;3.88;82.65;97903.45;2242677;79;20964;-81
2022/11/23 10:49:18;;;;;;;36.50;21.13;;;;;;;4.03;82.83;97886.59;2243198;79;20904;-83
2022/11/23 10:52:19;;;;;;;40.97;23.80;;;;;;;4.12;81.58;97886.80;2243895;79;20944;-83
2022/11/23 10:55:19;;;;;;;38.83;22.33;;;;;;;4.15;81.77;97889.45;2244212;79;20873;-83
2022/11/23 10:58:19;;;;;;;33.90;19.77;;;;;;;4.15;81.70;97881.70;2245141;79;21309;-83
2022/11/23 11:01:23;;;;;;;36.63;21.00;;;;;;;4.13;81.20;97879.92;2244902;79;20916;-83
2022/11/23 11:04:20;;;;;;;41.30;23.93;;;;;;;4.05;81.39;97882.34;2236520;79;20965;-84
2022/11/23 11:07:21;;;;;;;32.33;20.17;;;;;;;4.10;82.16;97882.02;2237956;79;20956;-82
2022/11/23 11:10:21;;;;;;;83.83;23.40;;;;;;;4.13;81.00;97875.63;2237404;79;20909;-86
2022/11/23 11:13:21;;;;;;;198.03;25.93;;;;;;;4.15;81.71;97874.37;2237789;80;20967;-83
2022/11/23 11:16:22;;;;;;;38.53;19.83;;;;;;;4.20;81.64;97884.38;2236962;79;20975;-84
2022/11/23 11:19:22;;;;;;;39.47;21.77;;;;;;;4.28;81.64;97881.54;2237496;79;20881;-82
2022/11/23 11:22:23;;;;;;;481.00;45.07;;;;;;;4.33;81.32;97870.88;2236914;79;20936;-81
2022/11/23 11:25:23;;;;;;;60.57;22.00;;;;;;;4.35;81.22;97867.94;2237341;79;20896;-82
2022/11/23 11:28:23;;;;;;;37.20;20.97;;;;;;;4.39;81.00;97871.45;2237353;79;20948;-80
2022/11/23 11:31:24;;;;;;;65.70;22.57;;;;;;;4.35;80.43;97865.36;2236073;80;20897;-81
2022/11/23 11:34:24;;;;;;;42.07;21.93;;;;;;;4.30;81.17;97866.07;2236710;79;21660;-82
2022/11/23 11:37:25;;;;;;;42.20;22.00;;;;;;;4.30;81.14;97858.32;2237877;79;20913;-83
2022/11/23 11:40:25;;;;;;;85.13;23.67;;;;;;;4.28;80.88;97856.12;2236119;79;20960;-82
2022/11/23 11:43:26;;;;;;;37.40;20.40;;;;;;;4.23;80.95;97857.32;2236832;79;20885;-82
2022/11/23 11:46:28;;;;;;;35.87;20.63;;;;;;;4.23;81.22;97852.16;2236971;79;21451;-82
2022/11/23 11:49:26;;;;;;;333.10;33.23;;;;;;;4.30;81.52;97859.19;2236336;79;21593;-79
2022/11/23 11:52:27;;;;;;;37.27;21.40;;;;;;;4.34;81.19;97850.70;2236995;79;20979;-80
2022/11/23 11:55:30;;;;;;;36.07;20.67;;;;;;;4.30;81.19;97846.27;2237072;79;20956;-80
2022/11/23 11:58:30;;;;;;;30.80;20.77;;;;;;;4.26;81.05;97842.30;2237798;79;20889;-82
2022/11/23 12:01:31;;;;;;;42.17;21.67;;;;;;;4.25;81.32;97847.02;2237454;79;21316;-81
2022/11/23 12:04:31;;;;;;;37.27;22.17;;;;;;;4.28;81.49;97851.83;2239599;79;20971;-79
2022/11/23 12:07:32;;;;;;;37.87;22.90;;;;;;;4.28;81.67;97840.20;2239826;79;20956;-82
2022/11/23 12:10:32;;;;;;;32.57;19.93;;;;;;;4.36;81.35;97833.52;2239816;79;21588;-81
2022/11/23 12:13:32;;;;;;;34.50;20.80;;;;;;;4.35;81.03;97835.64;2239910;79;21336;-82
2022/11/23 12:16:33;;;;;;;44.80;23.03;;;;;;;4.34;81.21;97830.45;2239985;79;20983;-81
2022/11/23 12:19:33;;;;;;;37.50;22.87;;;;;;;4.40;81.37;97824.98;2239908;79;20916;-80
2022/11/23 12:22:34;;;;;;;40.80;23.37;;;;;;;4.42;80.85;97830.18;2239775;79;20944;-82
2022/11/23 12:25:35;;;;;;;49.47;28.97;;;;;;;4.46;80.70;97827.69;2239189;79;21356;-82
2022/11/23 12:28:34;;;;;;;40.93;21.73;;;;;;;4.47;80.61;97832.02;2239393;79;20905;-81
2022/11/23 12:31:38;;;;;;;41.60;22.23;;;;;;;4.54;80.98;97829.55;2239295;79;20948;-82
2022/11/23 12:34:41;;;;;;;65.07;30.67;;;;;;;4.63;80.93;97833.17;2239490;79;20944;-85
2022/11/23 12:37:41;;;;;;;616.27;75.43;;;;;;;4.73;80.50;97832.93;2238065;79;20885;-85
2022/11/23 12:40:41;;;;;;;55.90;27.53;;;;;;;4.77;80.56;97834.73;2240431;79;21281;-84
2022/11/23 12:43:42;;;;;;;70.23;32.50;;;;;;;4.85;79.95;97834.45;2240699;79;20905;-84
2022/11/23 12:46:42;;;;;;;50.87;26.67;;;;;;;4.88;79.62;97837.50;2239950;79;20992;-81
2022/11/23 12:49:43;;;;;;;63.93;23.13;;;;;;;4.89;79.06;97845.29;2240422;79;21440;-81
2022/11/23 12:52:43;;;;;;;33.80;19.37;;;;;;;4.90;79.57;97850.91;2241545;79;20928;-81
2022/11/23 12:55:43;;;;;;;165.93;28.33;;;;;;;4.93;79.20;97850.09;2241703;79;20893;-79
2022/11/23 12:58:44;;;;;;;30.17;17.30;;;;;;;4.98;79.14;97854.50;2241226;79;20925;-83
2022/11/23 13:01:44;;;;;;;31.43;18.20;;;;;;;4.94;78.01;97860.47;2241138;79;20968;-80
2022/11/23 13:04:44;;;;;;;26.30;15.73;;;;;;;4.86;77.88;97864.63;2244268;79;20929;-84
2022/11/23 13:07:45;;;;;;;24.50;15.83;;;;;;;4.78;77.70;97862.33;2244428;79;21306;-81
2022/11/23 13:10:45;;;;;;;26.70;16.27;;;;;;;4.67;78.45;97860.83;2243263;79;20979;-82
2022/11/23 13:13:47;;;;;;;26.33;17.10;;;;;;;4.65;78.50;97867.68;2243216;79;21035;-81
2022/11/23 13:16:46;;;;;;;25.47;16.43;;;;;;;4.54;77.90;97864.44;2242831;79;21355;-82
2022/11/23 13:19:46;;;;;;;59.33;19.17;;;;;;;4.43;78.96;97871.55;2242770;79;20913;-81
2022/11/23 13:22:47;;;;;;;28.00;18.33;;;;;;;4.37;78.50;97870.14;2241930;79;20924;-82
2022/11/23 13:25:47;;;;;;;23.80;17.13;;;;;;;4.27;78.82;97877.21;2241563;79;20904;-80
2022/11/23 13:28:48;;;;;;;28.30;17.23;;;;;;;4.19;79.19;97872.72;2241381;79;20917;-81
2022/11/23 13:31:48;;;;;;;27.83;16.87;;;;;;;4.16;79.52;97876.11;2240305;79;20959;-79
2022/11/23 13:34:49;;;;;;;32.13;18.40;;;;;;;4.10;79.80;97870.40;2239571;79;21285;-79
2022/11/23 13:37:49;;;;;;;28.50;17.10;;;;;;;4.10;80.09;97882.44;2239606;79;20961;-79
2022/11/23 13:40:49;;;;;;;44.67;25.43;;;;;;;4.08;80.14;97886.70;2239504;79;20932;-81
2022/11/23 13:43:50;;;;;;;29.60;17.53;;;;;;;4.07;80.39;97881.08;2241376;79;20940;-79
2022/11/23 13:46:50;;;;;;;29.60;18.40;;;;;;;4.24;81.17;97886.61;2242531;79;20968;-80
2022/11/23 13:49:51;;;;;;;36.93;19.47;;;;;;;4.27;80.03;97892.71;2242722;79;21328;-79
2022/11/23 13:52:51;;;;;;;60.37;20.50;;;;;;;4.21;80.31;97892.58;2242113;79;20952;-79
2022/11/23 13:55:54;;;;;;;37.23;18.73;;;;;;;4.17;80.02;97889.48;2242437;79;20947;-80
2022/11/23 13:58:55;;;;;;;27.80;19.03;;;;;;;4.11;80.31;97889.34;2243086;79;20936;-80
2022/11/23 14:01:55;;;;;;;38.03;20.20;;;;;;;4.07;80.39;97887.12;2243546;79;20892;-79